ADDS METAR Data INFO
IDs: Format: Raw Decoded Include TAF

Data at: 2345 UTC 15 Dec 2017

KMCX 152335Z AUTO 24008G16KT 10SM OVC041 00/M08 A2998 RMK AO2 T00011085
KMCX 152315Z AUTO 24012KT 10SM BKN041 OVC048 00/M08 A2997 RMK AO2 T00001084
KMCX 152255Z AUTO 24009G14KT 10SM BKN043 OVC060 00/M08 A2997 RMK AO2 T00001084
KMCX 152235Z AUTO 24008KT 10SM BKN043 OVC050 00/M08 A2996 RMK AO2 T00001085
KMCX 152215Z AUTO 25007KT 10SM BKN043 OVC050 00/M09 A2996 RMK AO2 T00001088
KMCX 152155Z AUTO 26011G16KT 10SM BKN043 BKN050 OVC060 00/M09 A2996 RMK AO2 T00021090
KMCX 152135Z AUTO 26008KT 10SM BKN045 OVC060 00/M09 A2995 RMK AO2 T00021089
KMCX 152115Z AUTO 28008KT 10SM OVC043 01/M09 A2996 RMK AO2 T00051091
KMCX 152055Z AUTO 29011G18KT 10SM OVC043 00/M09 A2995 RMK AO2 T00031095
KMCX 152035Z AUTO 29013G18KT 10SM OVC043 01/M09 A2995 RMK AO2 T00051095
KMCX 152015Z AUTO 29012KT 10SM OVC043 01/M10 A2995 RMK AO2 T00051097
KMCX 151955Z AUTO 29016G22KT 10SM BKN043 01/M10 A2994 RMK AO2 T00061100
KMCX 151935Z AUTO 28013G18KT 10SM CLR 00/M10 A2994 RMK AO2 T00031101
KMCX 151915Z AUTO 27014G21KT 10SM BKN038 00/M10 A2994 RMK AO2 T00001102
KMCX 151855Z AUTO 28012G19KT 10SM BKN038 00/M10 A2995 RMK AO2 T10031098
KMCX 151835Z AUTO 27013G22KT 10SM BKN034 00/M10 A2995 RMK AO2 T10031097
KMCX 151815Z AUTO 28017G22KT 10SM OVC032 00/M09 A2995 RMK AO2 T10011090
KMCX 151755Z AUTO 28015G25KT 10SM OVC034 M01/M09 A2996 RMK AO2 T10121092 11010 21052
KMCX 151735Z AUTO 28013G21KT 10SM OVC034 M01/M09 A2996 RMK AO2 T10101095
KMCX 151715Z AUTO 29018G25KT 10SM OVC032 M02/M09 A2996 RMK AO2 T10161093
KMCX 151655Z AUTO 28014G24KT 10SM BKN026 OVC030 M02/M08 A2997 RMK AO2 T10231084
KMCX 151635Z AUTO 28015G24KT 10SM OVC024 M02/M08 A2997 RMK AO2 T10221076
KMCX 151615Z AUTO 27012G24KT 10SM OVC022 M02/M07 A2997 RMK AO2 T10231073
KMCX 151555Z AUTO 26014G22KT 10SM BKN020 OVC026 M02/M07 A2997 RMK AO2 T10251066
KMCX 151535Z AUTO 25012G15KT 10SM OVC020 M03/M07 A2997 RMK AO2 T10301067
KMCX 151515Z AUTO 24011KT 10SM OVC024 M03/M07 A2997 RMK AO2 T10351070
KMCX 151455Z AUTO 25011G14KT 10SM OVC026 M04/M07 A2997 RMK AO2 T10381071
KMCX 151435Z AUTO 24010KT 2 1/2SM -SN OVC028 M04/M07 A2997 RMK AO2 VIS 1 1/2V5 T10411070
KMCX 151415Z AUTO 24011G15KT 4SM -SN OVC028 M04/M08 A2996 RMK AO2 T10421076
KMCX 151355Z AUTO 24010KT 10SM -SN OVC028 M04/M08 A2996 RMK AO2 T10431081
KMCX 151335Z AUTO 24010KT 10SM BKN026 OVC049 M04/M08 A2997 RMK AO2 T10451083
KMCX 151315Z AUTO 24010KT 10SM BKN026 OVC045 M04/M09 A2997 RMK AO2 T10451086
KMCX 151255Z AUTO 24010KT 10SM OVC043 M05/M09 A2997 RMK AO2 T10471087
KMCX 151235Z AUTO 22008KT 10SM OVC041 M05/M09 A2997 RMK AO2 T10481090
KMCX 151215Z AUTO 22007KT 10SM OVC037 M05/M09 A2997 RMK AO2 T10501094
KMCX 151155Z AUTO 22006KT 10SM OVC034 M05/M09 A2997 RMK AO2 T10521093 11052 21087
KMCX 151135Z AUTO 22005KT 10SM OVC031 M05/M10 A2998 RMK AO2 T10541096
KMCX 151115Z AUTO 23004KT 10SM OVC031 M06/M10 A2999 RMK AO2 T10561096
KMCX 151055Z AUTO 22003KT 10SM BKN031 OVC085 M06/M09 A2999 RMK AO2 T10601093
KMCX 151035Z AUTO 22004KT 10SM OVC085 M06/M10 A2999 RMK AO2 T10621097
KMCX 151015Z AUTO 23003KT 10SM OVC085 M06/M10 A2999 RMK AO2 T10631101
KMCX 150955Z AUTO 22003KT 10SM OVC085 M06/M10 A2999 RMK AO2 T10651104
KMCX 150935Z AUTO 25004KT 10SM SCT034 OVC085 M07/M11 A3000 RMK AO2 T10721107
KMCX 150915Z AUTO 25003KT 10SM BKN034 M07/M10 A3000 RMK AO2 T10711100
KMCX 150855Z AUTO 23003KT 10SM SCT034 M07/M10 A3001 RMK AO2 T10731102
KMCX 150835Z AUTO 00000KT 10SM CLR M07/M10 A3001 RMK AO2 T10751100
KMCX 150815Z AUTO 00000KT 10SM CLR M08/M11 A3001 RMK AO2 T10811106
KMCX 150755Z AUTO 00000KT 10SM CLR M08/M11 A3001 RMK AO2 T10801108
KMCX 150735Z AUTO 00000KT 10SM CLR M08/M11 A3002 RMK AO2 T10821110
KMCX 150715Z AUTO 00000KT 10SM CLR M08/M11 A3002 RMK AO2 T10791111
KMCX 150655Z AUTO 00000KT 10SM CLR M09/M11 A3002 RMK AO2 T10861114
KMCX 150635Z AUTO 00000KT 10SM CLR M07/M10 A3002 RMK AO2 T10731105
KMCX 150615Z AUTO 28003KT 10SM CLR M08/M11 A3003 RMK AO2 T10801110
KMCX 150555Z AUTO 00000KT 10SM CLR M06/M10 A3004 RMK AO2 T10651097 11039 21092
KMCX 150535Z AUTO 00000KT 7SM SCT039 M07/M10 A3005 RMK AO2 T10741100
KMCX 150515Z AUTO 00000KT 10SM BKN037 M08/M11 A3005 RMK AO2 T10821110
KMCX 150455Z AUTO 00000KT 10SM OVC037 M08/M11 A3006 RMK AO2 T10771106 410131092
KMCX 150435Z AUTO 00000KT 10SM SCT037 M08/M10 A3006 RMK AO2 T10771104
KMCX 150415Z AUTO 00000KT 10SM SCT040 M09/M12 A3007 RMK AO2 T10901116
KMCX 150355Z AUTO 00000KT 10SM SCT037 M08/M11 A3007 RMK AO2 T10781109
KMCX 150335Z AUTO 00000KT 10SM BKN037 M07/M10 A3007 RMK AO2 T10731105
KMCX 150315Z AUTO 00000KT 10SM OVC037 M06/M10 A3008 RMK AO2 T10631100
KMCX 150255Z AUTO 00000KT 10SM BKN035 M07/M10 A3008 RMK AO2 T10661102
KMCX 150235Z AUTO 00000KT 10SM BKN032 M05/M10 A3007 RMK AO2 T10521097
KMCX 150215Z AUTO 00000KT 10SM CLR M06/M10 A3007 RMK AO2 T10601102
KMCX 150155Z AUTO 00000KT 10SM CLR M06/M10 A3008 RMK AO2 T10601097
KMCX 150135Z AUTO 00000KT 10SM CLR M05/M10 A3008 RMK AO2 T10541102
KMCX 150115Z AUTO 00000KT 10SM CLR M05/M09 A3008 RMK AO2 T10511092
KMCX 150055Z AUTO 00000KT 10SM CLR M05/M10 A3007 RMK AO2 T10501098
KMCX 150035Z AUTO 00000KT 10SM CLR M04/M10 A3007 RMK AO2 T10421097
KMCX 150015Z AUTO 00000KT 10SM CLR M05/M09 A3007 RMK AO2 T10481094
KMCX 142355Z AUTO 00000KT 10SM CLR M04/M10 A3007 RMK AO2 T10381101 11024 21039
KMCX 142335Z AUTO 00000KT 10SM CLR M04/M10 A3007 RMK AO2 T10391101
KMCX 142315Z AUTO 00000KT 10SM CLR M04/M10 A3007 RMK AO2 T10371105
KMCX 142255Z AUTO 00000KT 10SM CLR M04/M10 A3007 RMK AO2 T10381104
KMCX 142235Z AUTO 00000KT 10SM CLR M04/M11 A3007 RMK AO2 T10381108
KMCX 142215Z AUTO 34004KT 10SM CLR M03/M10 A3006 RMK AO2 T10341105
KMCX 142155Z AUTO 00000KT 10SM SCT050 M03/M11 A3006 RMK AO2 T10301107
KMCX 142135Z AUTO 00000KT 10SM SCT050 M03/M11 A3006 RMK AO2 T10291108
KMCX 142115Z AUTO 00000KT 10SM BKN048 M03/M11 A3005 RMK AO2 T10271110
KMCX 142055Z AUTO 00000KT 10SM OVC048 M03/M11 A3005 RMK AO2 T10271108
KMCX 142035Z AUTO 00000KT 10SM SCT048 M03/M11 A3005 RMK AO2 T10291110
KMCX 142015Z AUTO 00000KT 10SM CLR M03/M11 A3004 RMK AO2 T10261111
KMCX 141955Z AUTO 00000KT 10SM CLR M03/M11 A3004 RMK AO2 T10261111
KMCX 141935Z AUTO 00000KT 10SM CLR M03/M11 A3004 RMK AO2 T10281113
KMCX 141915Z AUTO 00000KT 10SM CLR M03/M11 A3004 RMK AO2 T10281114
KMCX 141855Z AUTO 00000KT 10SM CLR M03/M11 A3005 RMK AO2 T10301115
KMCX 141835Z AUTO 00000KT 10SM SCT049 M03/M12 A3005 RMK AO2 T10351117
KMCX 141815Z AUTO 00000KT 10SM SCT049 M03/M11 A3006 RMK AO2 T10321115
KMCX 141755Z AUTO 00000KT 10SM CLR M03/M12 A3006 RMK AO2 T10331117 11032 21070
KMCX 141735Z AUTO 04003KT 10SM CLR M04/M12 A3006 RMK AO2 T10371118
KMCX 141715Z AUTO 05004KT 10SM CLR M04/M12 A3006 RMK AO2 T10391118
KMCX 141655Z AUTO 03003KT 10SM CLR M04/M11 A3007 RMK AO2 T10371112
KMCX 141635Z AUTO 07003KT 10SM SCT044 M05/M11 A3007 RMK AO2 T10481113
KMCX 141615Z AUTO 05004KT 10SM OVC042 M05/M11 A3007 RMK AO2 T10491113
KMCX 141555Z AUTO 00000KT 10SM OVC042 M05/M12 A3007 RMK AO2 T10551116
KMCX 141535Z AUTO 00000KT 10SM OVC042 M06/M12 A3007 RMK AO2 T10601121
KMCX 141515Z AUTO 00000KT 10SM OVC042 M06/M12 A3006 RMK AO2 T10601117
KMCX 141455Z AUTO 03004KT 10SM BKN042 M06/M11 A3005 RMK AO2 T10651115
KMCX 141435Z AUTO 05003KT 10SM CLR M07/M11 A3002 RMK AO2 T10671111
KMCX 141415Z AUTO 00000KT 10SM CLR M07/M11 A3001 RMK AO2 T10701111
KMCX 141355Z AUTO 07004KT 10SM CLR M07/M11 A3000 RMK AO2 T10681114
KMCX 141335Z AUTO 08004KT 10SM CLR M07/M11 A2999 RMK AO2 T10671113
KMCX 141315Z AUTO 07005KT 10SM SCT041 M06/M11 A2999 RMK AO2 T10651114
KMCX 141255Z AUTO 07004KT 10SM BKN041 M06/M11 A2998 RMK AO2 T10601108
KMCX 141235Z AUTO 05007KT 10SM OVC041 M05/M11 A2998 RMK AO2 T10541111
KMCX 141215Z AUTO 04008KT 10SM OVC039 M05/M11 A2997 RMK AO2 T10511111
KMCX 141155Z AUTO 07006KT 10SM OVC037 M04/M09 A2996 RMK AO2 T10451092 11013 21045